Straughn, Alabama
Current Conditions -  °F | °C
As of 9:56 PM on Thursday 18 Dec 2014 (Local Time) from K79J Reporting Station
Overcast Overcast  
Wind Chill: 58°   Ceiling: 8000
Heat Index: 58°   Visibility: 10mi
Dew Point: 38°   Wind: 8mph
Humidity: 47%   Direction: 360°N
Pressure: 30.17"   Gusts: NA
Location:  31.1836°N, 86.5372°W
Report Text: K79J 190356Z AUTO 36007KT 10SM FEW030 BKN080 OVC100 14/03 A3017 RMK AO2 SLP214 T01440033
Loading
Personal Weather Stations






























Interactive Weather Map New forecast layout! Learn more

10-Day Weather Forecast

Advertisements
Track Severe Weather on mobile